sensor_id;sensor_type;location;lat;lon;timestamp;P1;durP1;ratioP1;P2;durP2;ratioP2
33022;SDS011;19390;51.460;5.710;2023-07-31T00:01:48;24.55;;;8.25;;
33022;SDS011;19390;51.460;5.710;2023-07-31T00:04:13;27.55;;;8.18;;
33022;SDS011;19390;51.460;5.710;2023-07-31T00:06:39;22.75;;;7.72;;
33022;SDS011;19390;51.460;5.710;2023-07-31T00:09:04;24.17;;;7.90;;
33022;SDS011;19390;51.460;5.710;2023-07-31T00:11:30;21.67;;;7.63;;
33022;SDS011;19390;51.460;5.710;2023-07-31T00:13:56;23.15;;;7.40;;
33022;SDS011;19390;51.460;5.710;2023-07-31T00:16:21;22.42;;;7.68;;
33022;SDS011;19390;51.460;5.710;2023-07-31T00:18:47;23.10;;;7.78;;
33022;SDS011;19390;51.460;5.710;2023-07-31T00:21:12;18.92;;;6.63;;
33022;SDS011;19390;51.460;5.710;2023-07-31T00:23:38;20.50;;;7.63;;
33022;SDS011;19390;51.460;5.710;2023-07-31T00:26:04;23.95;;;7.00;;
33022;SDS011;19390;51.460;5.710;2023-07-31T00:28:29;18.33;;;5.97;;
33022;SDS011;19390;51.460;5.710;2023-07-31T00:30:55;26.38;;;7.25;;
33022;SDS011;19390;51.460;5.710;2023-07-31T00:33:20;22.65;;;6.85;;
33022;SDS011;19390;51.460;5.710;2023-07-31T00:35:46;18.83;;;6.57;;
33022;SDS011;19390;51.460;5.710;2023-07-31T00:38:13;19.75;;;6.13;;
33022;SDS011;19390;51.460;5.710;2023-07-31T00:40:39;22.05;;;6.55;;
33022;SDS011;19390;51.460;5.710;2023-07-31T00:43:04;16.90;;;6.65;;
33022;SDS011;19390;51.460;5.710;2023-07-31T00:45:30;18.77;;;6.63;;
33022;SDS011;19390;51.460;5.710;2023-07-31T00:47:57;18.77;;;5.85;;
33022;SDS011;19390;51.460;5.710;2023-07-31T00:50:24;23.83;;;6.32;;
33022;SDS011;19390;51.460;5.710;2023-07-31T00:52:50;17.67;;;5.78;;
33022;SDS011;19390;51.460;5.710;2023-07-31T00:55:16;20.02;;;6.68;;
33022;SDS011;19390;51.460;5.710;2023-07-31T00:57:42;14.88;;;5.93;;
33022;SDS011;19390;51.460;5.710;2023-07-31T01:00:08;19.67;;;5.80;;
33022;SDS011;19390;51.460;5.710;2023-07-31T01:02:34;18.08;;;5.80;;
33022;SDS011;19390;51.460;5.710;2023-07-31T01:05:00;20.95;;;5.88;;
33022;SDS011;19390;51.460;5.710;2023-07-31T01:07:28;23.77;;;5.90;;
33022;SDS011;19390;51.460;5.710;2023-07-31T01:12:55;17.48;;;5.53;;
33022;SDS011;19390;51.460;5.710;2023-07-31T01:15:22;16.70;;;5.40;;
33022;SDS011;19390;51.460;5.710;2023-07-31T01:17:48;14.57;;;5.30;;
33022;SDS011;19390;51.460;5.710;2023-07-31T01:20:16;17.42;;;6.50;;
33022;SDS011;19390;51.460;5.710;2023-07-31T01:28:23;17.95;;;5.22;;
33022;SDS011;19390;51.460;5.710;2023-07-31T01:30:53;16.80;;;6.25;;
33022;SDS011;19390;51.460;5.710;2023-07-31T01:33:23;18.75;;;5.43;;
33022;SDS011;19390;51.460;5.710;2023-07-31T01:35:49;18.60;;;5.53;;
33022;SDS011;19390;51.460;5.710;2023-07-31T01:38:15;15.75;;;6.35;;
33022;SDS011;19390;51.460;5.710;2023-07-31T01:40:45;20.45;;;6.30;;
33022;SDS011;19390;51.460;5.710;2023-07-31T01:43:16;11.25;;;5.40;;
33022;SDS011;19390;51.460;5.710;2023-07-31T01:45:42;15.88;;;5.53;;
33022;SDS011;19390;51.460;5.710;2023-07-31T01:48:07;16.88;;;5.75;;
33022;SDS011;19390;51.460;5.710;2023-07-31T01:50:33;23.10;;;5.80;;
33022;SDS011;19390;51.460;5.710;2023-07-31T01:52:58;17.35;;;5.85;;
33022;SDS011;19390;51.460;5.710;2023-07-31T01:55:24;17.70;;;5.45;;
33022;SDS011;19390;51.460;5.710;2023-07-31T01:57:49;17.10;;;5.72;;
33022;SDS011;19390;51.460;5.710;2023-07-31T02:00:15;12.27;;;6.10;;
33022;SDS011;19390;51.460;5.710;2023-07-31T02:02:41;17.05;;;5.43;;
33022;SDS011;19390;51.460;5.710;2023-07-31T02:05:06;16.40;;;5.88;;
33022;SDS011;19390;51.460;5.710;2023-07-31T02:07:32;17.05;;;5.43;;
33022;SDS011;19390;51.460;5.710;2023-07-31T02:09:57;15.48;;;4.97;;
33022;SDS011;19390;51.460;5.710;2023-07-31T02:12:23;17.88;;;5.47;;
33022;SDS011;19390;51.460;5.710;2023-07-31T02:14:49;17.90;;;5.93;;
33022;SDS011;19390;51.460;5.710;2023-07-31T02:17:14;22.42;;;6.00;;
33022;SDS011;19390;51.460;5.710;2023-07-31T02:19:40;15.80;;;5.72;;
33022;SDS011;19390;51.460;5.710;2023-07-31T02:22:06;17.77;;;6.20;;
33022;SDS011;19390;51.460;5.710;2023-07-31T02:24:31;17.80;;;6.05;;
33022;SDS011;19390;51.460;5.710;2023-07-31T02:26:57;15.35;;;6.00;;
33022;SDS011;19390;51.460;5.710;2023-07-31T02:29:22;18.58;;;6.55;;
33022;SDS011;19390;51.460;5.710;2023-07-31T02:31:48;19.17;;;6.30;;
33022;SDS011;19390;51.460;5.710;2023-07-31T02:34:13;19.27;;;5.88;;
33022;SDS011;19390;51.460;5.710;2023-07-31T02:36:39;16.60;;;5.75;;
33022;SDS011;19390;51.460;5.710;2023-07-31T02:39:04;19.23;;;6.40;;
33022;SDS011;19390;51.460;5.710;2023-07-31T02:41:30;19.65;;;6.05;;
33022;SDS011;19390;51.460;5.710;2023-07-31T02:43:56;20.63;;;6.10;;
33022;SDS011;19390;51.460;5.710;2023-07-31T02:46:21;19.90;;;6.97;;
33022;SDS011;19390;51.460;5.710;2023-07-31T02:48:49;18.58;;;5.90;;
33022;SDS011;19390;51.460;5.710;2023-07-31T02:51:15;17.48;;;6.25;;
33022;SDS011;19390;51.460;5.710;2023-07-31T02:53:41;26.20;;;6.40;;
33022;SDS011;19390;51.460;5.710;2023-07-31T02:56:06;20.40;;;6.25;;
33022;SDS011;19390;51.460;5.710;2023-07-31T02:58:32;17.52;;;6.03;;
33022;SDS011;19390;51.460;5.710;2023-07-31T03:00:58;18.42;;;6.60;;
33022;SDS011;19390;51.460;5.710;2023-07-31T03:03:24;17.90;;;5.65;;
33022;SDS011;19390;51.460;5.710;2023-07-31T03:05:49;18.33;;;6.35;;
33022;SDS011;19390;51.460;5.710;2023-07-31T03:08:15;17.95;;;6.30;;
33022;SDS011;19390;51.460;5.710;2023-07-31T03:10:40;16.30;;;5.78;;
33022;SDS011;19390;51.460;5.710;2023-07-31T03:13:06;14.15;;;6.78;;
33022;SDS011;19390;51.460;5.710;2023-07-31T03:15:32;17.45;;;6.13;;
33022;SDS011;19390;51.460;5.710;2023-07-31T03:17:57;23.17;;;6.47;;
33022;SDS011;19390;51.460;5.710;2023-07-31T03:20:23;18.88;;;5.32;;
33022;SDS011;19390;51.460;5.710;2023-07-31T03:22:48;17.45;;;6.40;;
33022;SDS011;19390;51.460;5.710;2023-07-31T03:25:14;18.20;;;6.25;;
33022;SDS011;19390;51.460;5.710;2023-07-31T03:27:40;20.92;;;6.25;;
33022;SDS011;19390;51.460;5.710;2023-07-31T03:30:06;17.77;;;5.80;;
33022;SDS011;19390;51.460;5.710;2023-07-31T03:32:32;19.60;;;6.18;;
33022;SDS011;19390;51.460;5.710;2023-07-31T03:34:58;20.65;;;6.57;;
33022;SDS011;19390;51.460;5.710;2023-07-31T03:37:24;17.88;;;5.68;;
33022;SDS011;19390;51.460;5.710;2023-07-31T03:39:49;22.58;;;5.70;;
33022;SDS011;19390;51.460;5.710;2023-07-31T03:42:15;17.70;;;5.78;;
33022;SDS011;19390;51.460;5.710;2023-07-31T03:44:40;18.00;;;5.93;;
33022;SDS011;19390;51.460;5.710;2023-07-31T03:47:06;17.20;;;6.28;;
33022;SDS011;19390;51.460;5.710;2023-07-31T03:49:32;14.85;;;5.15;;
33022;SDS011;19390;51.460;5.710;2023-07-31T03:51:57;18.13;;;5.75;;
33022;SDS011;19390;51.460;5.710;2023-07-31T03:54:23;15.18;;;5.28;;
33022;SDS011;19390;51.460;5.710;2023-07-31T03:56:48;25.70;;;6.82;;
33022;SDS011;19390;51.460;5.710;2023-07-31T03:59:14;18.58;;;5.93;;
33022;SDS011;19390;51.460;5.710;2023-07-31T04:01:40;20.50;;;6.38;;
33022;SDS011;19390;51.460;5.710;2023-07-31T04:04:05;13.82;;;6.15;;
33022;SDS011;19390;51.460;5.710;2023-07-31T04:06:31;18.15;;;6.25;;
33022;SDS011;19390;51.460;5.710;2023-07-31T04:08:56;21.30;;;6.30;;
33022;SDS011;19390;51.460;5.710;2023-07-31T04:11:22;20.60;;;6.47;;
33022;SDS011;19390;51.460;5.710;2023-07-31T04:13:47;17.40;;;5.70;;
33022;SDS011;19390;51.460;5.710;2023-07-31T04:16:13;15.15;;;6.20;;
33022;SDS011;19390;51.460;5.710;2023-07-31T04:18:39;17.50;;;5.78;;
33022;SDS011;19390;51.460;5.710;2023-07-31T04:21:05;16.13;;;6.50;;
33022;SDS011;19390;51.460;5.710;2023-07-31T04:23:30;21.23;;;6.38;;
33022;SDS011;19390;51.460;5.710;2023-07-31T04:25:56;16.02;;;6.43;;
33022;SDS011;19390;51.460;5.710;2023-07-31T04:28:21;23.75;;;6.93;;
33022;SDS011;19390;51.460;5.710;2023-07-31T04:30:47;17.30;;;6.38;;
33022;SDS011;19390;51.460;5.710;2023-07-31T04:33:13;16.35;;;6.03;;
33022;SDS011;19390;51.460;5.710;2023-07-31T04:35:38;21.65;;;6.35;;
33022;SDS011;19390;51.460;5.710;2023-07-31T04:38:04;21.02;;;6.20;;
33022;SDS011;19390;51.460;5.710;2023-07-31T04:40:29;20.88;;;7.13;;
33022;SDS011;19390;51.460;5.710;2023-07-31T04:42:55;17.42;;;6.22;;
33022;SDS011;19390;51.460;5.710;2023-07-31T04:45:21;25.83;;;7.13;;
33022;SDS011;19390;51.460;5.710;2023-07-31T04:47:46;14.10;;;5.82;;
33022;SDS011;19390;51.460;5.710;2023-07-31T04:50:12;20.70;;;5.90;;
33022;SDS011;19390;51.460;5.710;2023-07-31T04:52:37;16.83;;;6.88;;
33022;SDS011;19390;51.460;5.710;2023-07-31T04:55:03;16.10;;;6.32;;
33022;SDS011;19390;51.460;5.710;2023-07-31T04:57:29;13.25;;;6.20;;
33022;SDS011;19390;51.460;5.710;2023-07-31T04:59:54;17.20;;;6.35;;
33022;SDS011;19390;51.460;5.710;2023-07-31T05:02:20;21.15;;;6.50;;
33022;SDS011;19390;51.460;5.710;2023-07-31T05:04:46;15.82;;;6.18;;
33022;SDS011;19390;51.460;5.710;2023-07-31T05:07:11;14.57;;;5.93;;
33022;SDS011;19390;51.460;5.710;2023-07-31T05:09:37;14.90;;;6.50;;
33022;SDS011;19390;51.460;5.710;2023-07-31T05:12:04;15.30;;;6.30;;
33022;SDS011;19390;51.460;5.710;2023-07-31T05:14:30;16.23;;;6.38;;
33022;SDS011;19390;51.460;5.710;2023-07-31T05:16:56;12.13;;;5.93;;
33022;SDS011;19390;51.460;5.710;2023-07-31T05:19:22;16.42;;;6.30;;
33022;SDS011;19390;51.460;5.710;2023-07-31T05:21:47;14.88;;;6.85;;
33022;SDS011;19390;51.460;5.710;2023-07-31T05:24:13;14.20;;;5.38;;
33022;SDS011;19390;51.460;5.710;2023-07-31T05:26:38;14.63;;;6.28;;
33022;SDS011;19390;51.460;5.710;2023-07-31T05:29:04;10.88;;;5.38;;
33022;SDS011;19390;51.460;5.710;2023-07-31T05:31:30;8.70;;;5.28;;
33022;SDS011;19390;51.460;5.710;2023-07-31T05:33:57;8.82;;;5.22;;
33022;SDS011;19390;51.460;5.710;2023-07-31T05:36:22;13.55;;;5.70;;
33022;SDS011;19390;51.460;5.710;2023-07-31T05:38:48;16.13;;;6.22;;
33022;SDS011;19390;51.460;5.710;2023-07-31T05:41:14;12.60;;;5.22;;
33022;SDS011;19390;51.460;5.710;2023-07-31T05:43:40;9.80;;;5.15;;
33022;SDS011;19390;51.460;5.710;2023-07-31T05:46:06;10.05;;;5.45;;
33022;SDS011;19390;51.460;5.710;2023-07-31T05:48:32;14.35;;;5.63;;
33022;SDS011;19390;51.460;5.710;2023-07-31T05:50:59;12.65;;;6.55;;
33022;SDS011;19390;51.460;5.710;2023-07-31T05:53:25;12.40;;;6.80;;
33022;SDS011;19390;51.460;5.710;2023-07-31T05:55:50;14.55;;;6.85;;
33022;SDS011;19390;51.460;5.710;2023-07-31T05:58:16;12.38;;;6.43;;
33022;SDS011;19390;51.460;5.710;2023-07-31T06:00:41;16.08;;;7.90;;
33022;SDS011;19390;51.460;5.710;2023-07-31T06:03:07;13.55;;;7.15;;
33022;SDS011;19390;51.460;5.710;2023-07-31T06:05:33;13.43;;;8.15;;
33022;SDS011;19390;51.460;5.710;2023-07-31T06:07:58;17.25;;;8.57;;
33022;SDS011;19390;51.460;5.710;2023-07-31T06:10:24;17.17;;;8.68;;
33022;SDS011;19390;51.460;5.710;2023-07-31T06:23:07;10.85;;;6.72;;
33022;SDS011;19390;51.460;5.710;2023-07-31T06:25:33;16.13;;;8.43;;
33022;SDS011;19390;51.460;5.710;2023-07-31T06:27:58;14.57;;;8.40;;
33022;SDS011;19390;51.460;5.710;2023-07-31T06:30:24;10.90;;;6.90;;
33022;SDS011;19390;51.460;5.710;2023-07-31T06:32:49;12.45;;;8.57;;
33022;SDS011;19390;51.460;5.710;2023-07-31T06:35:15;12.93;;;9.02;;
33022;SDS011;19390;51.460;5.710;2023-07-31T06:37:40;14.25;;;9.18;;
33022;SDS011;19390;51.460;5.710;2023-07-31T06:40:09;14.55;;;8.43;;
33022;SDS011;19390;51.460;5.710;2023-07-31T06:42:35;13.43;;;9.00;;
33022;SDS011;19390;51.460;5.710;2023-07-31T06:45:01;16.45;;;8.80;;
33022;SDS011;19390;51.460;5.710;2023-07-31T06:47:27;14.18;;;9.35;;
33022;SDS011;19390;51.460;5.710;2023-07-31T06:49:53;10.02;;;7.30;;
33022;SDS011;19390;51.460;5.710;2023-07-31T06:52:18;13.10;;;7.43;;
33022;SDS011;19390;51.460;5.710;2023-07-31T06:54:59;13.45;;;7.35;;
33022;SDS011;19390;51.460;5.710;2023-07-31T06:57:40;9.48;;;6.63;;
33022;SDS011;19390;51.460;5.710;2023-07-31T07:00:06;10.27;;;6.65;;
33022;SDS011;19390;51.460;5.710;2023-07-31T07:02:33;7.05;;;5.60;;
33022;SDS011;19390;51.460;5.710;2023-07-31T07:04:59;12.73;;;7.18;;
33022;SDS011;19390;51.460;5.710;2023-07-31T07:07:24;9.98;;;5.93;;
33022;SDS011;19390;51.460;5.710;2023-07-31T07:09:50;8.55;;;5.57;;
33022;SDS011;19390;51.460;5.710;2023-07-31T07:12:15;12.52;;;6.53;;
33022;SDS011;19390;51.460;5.710;2023-07-31T07:14:41;9.68;;;5.85;;
33022;SDS011;19390;51.460;5.710;2023-07-31T07:17:07;10.88;;;6.97;;
33022;SDS011;19390;51.460;5.710;2023-07-31T07:19:32;7.97;;;6.10;;
33022;SDS011;19390;51.460;5.710;2023-07-31T07:21:58;13.25;;;7.00;;
33022;SDS011;19390;51.460;5.710;2023-07-31T07:24:26;8.07;;;5.57;;
33022;SDS011;19390;51.460;5.710;2023-07-31T07:26:52;11.88;;;6.55;;
33022;SDS011;19390;51.460;5.710;2023-07-31T07:29:18;10.60;;;5.40;;
33022;SDS011;19390;51.460;5.710;2023-07-31T07:31:43;8.88;;;6.22;;
33022;SDS011;19390;51.460;5.710;2023-07-31T07:34:09;7.45;;;5.63;;
33022;SDS011;19390;51.460;5.710;2023-07-31T07:36:34;9.45;;;6.35;;
33022;SDS011;19390;51.460;5.710;2023-07-31T07:39:00;9.48;;;6.43;;
33022;SDS011;19390;51.460;5.710;2023-07-31T07:41:25;8.82;;;5.18;;
33022;SDS011;19390;51.460;5.710;2023-07-31T07:43:51;8.43;;;5.22;;
33022;SDS011;19390;51.460;5.710;2023-07-31T07:46:17;9.98;;;5.85;;
33022;SDS011;19390;51.460;5.710;2023-07-31T07:48:42;10.18;;;6.10;;
33022;SDS011;19390;51.460;5.710;2023-07-31T07:51:08;6.93;;;5.55;;
33022;SDS011;19390;51.460;5.710;2023-07-31T07:53:33;10.60;;;5.47;;
33022;SDS011;19390;51.460;5.710;2023-07-31T07:55:59;8.68;;;5.75;;
33022;SDS011;19390;51.460;5.710;2023-07-31T07:58:24;9.18;;;5.50;;
33022;SDS011;19390;51.460;5.710;2023-07-31T08:00:50;9.38;;;5.95;;
33022;SDS011;19390;51.460;5.710;2023-07-31T08:03:17;9.88;;;7.00;;
33022;SDS011;19390;51.460;5.710;2023-07-31T08:05:43;12.25;;;5.85;;
33022;SDS011;19390;51.460;5.710;2023-07-31T08:08:13;12.38;;;6.10;;
33022;SDS011;19390;51.460;5.710;2023-07-31T08:10:40;8.77;;;5.50;;
33022;SDS011;19390;51.460;5.710;2023-07-31T08:13:05;9.02;;;6.05;;
33022;SDS011;19390;51.460;5.710;2023-07-31T08:15:31;12.25;;;6.35;;
33022;SDS011;19390;51.460;5.710;2023-07-31T08:17:56;7.80;;;5.22;;
33022;SDS011;19390;51.460;5.710;2023-07-31T08:20:22;11.77;;;6.07;;
33022;SDS011;19390;51.460;5.710;2023-07-31T08:22:48;10.93;;;6.47;;
33022;SDS011;19390;51.460;5.710;2023-07-31T08:25:13;9.50;;;6.43;;
33022;SDS011;19390;51.460;5.710;2023-07-31T08:27:42;11.82;;;6.50;;
33022;SDS011;19390;51.460;5.710;2023-07-31T08:30:08;11.40;;;6.53;;
33022;SDS011;19390;51.460;5.710;2023-07-31T08:32:34;13.77;;;7.10;;
33022;SDS011;19390;51.460;5.710;2023-07-31T08:35:00;9.23;;;6.60;;
33022;SDS011;19390;51.460;5.710;2023-07-31T08:37:25;11.77;;;6.90;;
33022;SDS011;19390;51.460;5.710;2023-07-31T08:39:51;11.45;;;6.25;;
33022;SDS011;19390;51.460;5.710;2023-07-31T08:42:16;15.50;;;7.05;;
33022;SDS011;19390;51.460;5.710;2023-07-31T08:44:42;8.02;;;5.70;;
33022;SDS011;19390;51.460;5.710;2023-07-31T08:47:08;10.90;;;6.82;;
33022;SDS011;19390;51.460;5.710;2023-07-31T08:49:35;9.20;;;6.22;;
33022;SDS011;19390;51.460;5.710;2023-07-31T08:52:03;10.40;;;7.15;;
33022;SDS011;19390;51.460;5.710;2023-07-31T08:54:29;10.77;;;6.43;;
33022;SDS011;19390;51.460;5.710;2023-07-31T08:56:57;9.32;;;5.50;;
33022;SDS011;19390;51.460;5.710;2023-07-31T08:59:24;11.13;;;6.35;;
33022;SDS011;19390;51.460;5.710;2023-07-31T09:01:53;11.60;;;6.45;;
33022;SDS011;19390;51.460;5.710;2023-07-31T09:04:21;12.52;;;6.75;;
33022;SDS011;19390;51.460;5.710;2023-07-31T09:06:48;14.98;;;6.90;;
33022;SDS011;19390;51.460;5.710;2023-07-31T09:09:14;11.23;;;6.35;;
33022;SDS011;19390;51.460;5.710;2023-07-31T09:11:40;10.75;;;6.60;;
33022;SDS011;19390;51.460;5.710;2023-07-31T09:14:05;10.55;;;5.80;;
33022;SDS011;19390;51.460;5.710;2023-07-31T09:16:34;10.98;;;5.80;;
33022;SDS011;19390;51.460;5.710;2023-07-31T09:19:00;10.00;;;5.63;;
33022;SDS011;19390;51.460;5.710;2023-07-31T09:21:28;10.98;;;5.68;;
33022;SDS011;19390;51.460;5.710;2023-07-31T09:23:54;12.30;;;6.57;;
33022;SDS011;19390;51.460;5.710;2023-07-31T09:26:33;10.20;;;5.75;;
33022;SDS011;19390;51.460;5.710;2023-07-31T09:29:00;9.52;;;6.05;;
33022;SDS011;19390;51.460;5.710;2023-07-31T09:31:32;8.80;;;5.80;;
33022;SDS011;19390;51.460;5.710;2023-07-31T09:34:07;8.73;;;6.25;;
33022;SDS011;19390;51.460;5.710;2023-07-31T09:36:39;11.93;;;6.22;;
33022;SDS011;19390;51.460;5.710;2023-07-31T09:39:06;12.73;;;5.78;;
33022;SDS011;19390;51.460;5.710;2023-07-31T09:41:38;10.68;;;5.50;;
33022;SDS011;19390;51.460;5.710;2023-07-31T09:44:05;9.70;;;5.57;;
33022;SDS011;19390;51.460;5.710;2023-07-31T09:46:30;8.85;;;5.53;;
33022;SDS011;19390;51.460;5.710;2023-07-31T09:49:08;9.90;;;5.68;;
33022;SDS011;19390;51.460;5.710;2023-07-31T09:51:35;9.45;;;5.70;;
33022;SDS011;19390;51.460;5.710;2023-07-31T09:54:09;13.43;;;5.93;;
33022;SDS011;19390;51.460;5.710;2023-07-31T09:56:36;12.48;;;5.32;;
33022;SDS011;19390;51.460;5.710;2023-07-31T09:59:06;11.32;;;5.22;;
33022;SDS011;19390;51.460;5.710;2023-07-31T10:01:35;10.38;;;4.80;;
33022;SDS011;19390;51.460;5.710;2023-07-31T10:04:01;9.00;;;4.40;;
33022;SDS011;19390;51.460;5.710;2023-07-31T10:06:28;10.65;;;4.68;;
33022;SDS011;19390;51.460;5.710;2023-07-31T10:08:53;9.63;;;5.13;;
33022;SDS011;19390;51.460;5.710;2023-07-31T10:11:20;8.20;;;4.50;;
33022;SDS011;19390;51.460;5.710;2023-07-31T10:13:49;9.68;;;4.80;;
33022;SDS011;19390;51.460;5.710;2023-07-31T10:16:16;7.00;;;4.80;;
33022;SDS011;19390;51.460;5.710;2023-07-31T10:18:43;8.90;;;5.00;;
33022;SDS011;19390;51.460;5.710;2023-07-31T10:21:10;10.60;;;4.97;;
33022;SDS011;19390;51.460;5.710;2023-07-31T10:23:36;11.10;;;4.43;;
33022;SDS011;19390;51.460;5.710;2023-07-31T10:26:03;8.90;;;4.32;;
33022;SDS011;19390;51.460;5.710;2023-07-31T10:28:31;9.30;;;4.93;;
33022;SDS011;19390;51.460;5.710;2023-07-31T10:30:59;9.05;;;4.35;;
33022;SDS011;19390;51.460;5.710;2023-07-31T10:33:26;5.97;;;3.97;;
33022;SDS011;19390;51.460;5.710;2023-07-31T10:36:11;9.32;;;4.13;;
33022;SDS011;19390;51.460;5.710;2023-07-31T10:38:44;9.52;;;4.90;;
33022;SDS011;19390;51.460;5.710;2023-07-31T10:41:10;10.85;;;4.55;;
33022;SDS011;19390;51.460;5.710;2023-07-31T10:43:39;6.10;;;4.05;;
33022;SDS011;19390;51.460;5.710;2023-07-31T10:46:11;8.00;;;4.32;;
33022;SDS011;19390;51.460;5.710;2023-07-31T10:48:38;7.13;;;3.67;;
33022;SDS011;19390;51.460;5.710;2023-07-31T10:51:07;6.15;;;3.50;;
33022;SDS011;19390;51.460;5.710;2023-07-31T10:53:35;6.95;;;4.40;;
33022;SDS011;19390;51.460;5.710;2023-07-31T10:56:04;7.38;;;4.50;;
33022;SDS011;19390;51.460;5.710;2023-07-31T10:58:34;5.35;;;3.85;;
33022;SDS011;19390;51.460;5.710;2023-07-31T11:01:02;7.32;;;3.80;;
33022;SDS011;19390;51.460;5.710;2023-07-31T11:03:43;7.25;;;4.10;;
33022;SDS011;19390;51.460;5.710;2023-07-31T11:06:14;9.52;;;3.95;;
33022;SDS011;19390;51.460;5.710;2023-07-31T11:08:44;7.13;;;3.67;;
33022;SDS011;19390;51.460;5.710;2023-07-31T11:11:14;5.50;;;4.43;;
33022;SDS011;19390;51.460;5.710;2023-07-31T11:13:47;6.53;;;3.70;;
33022;SDS011;19390;51.460;5.710;2023-07-31T11:16:23;6.15;;;4.45;;
33022;SDS011;19390;51.460;5.710;2023-07-31T11:18:50;9.90;;;4.38;;
33022;SDS011;19390;51.460;5.710;2023-07-31T11:21:17;7.82;;;4.28;;
33022;SDS011;19390;51.460;5.710;2023-07-31T11:23:55;6.25;;;3.70;;
33022;SDS011;19390;51.460;5.710;2023-07-31T11:26:22;7.50;;;4.20;;
33022;SDS011;19390;51.460;5.710;2023-07-31T11:28:49;4.95;;;3.53;;
33022;SDS011;19390;51.460;5.710;2023-07-31T11:31:15;6.68;;;3.67;;
33022;SDS011;19390;51.460;5.710;2023-07-31T11:33:42;8.52;;;4.20;;
33022;SDS011;19390;51.460;5.710;2023-07-31T11:36:14;9.18;;;4.32;;
33022;SDS011;19390;51.460;5.710;2023-07-31T11:38:42;6.70;;;3.97;;
33022;SDS011;19390;51.460;5.710;2023-07-31T11:41:08;6.45;;;3.45;;
33022;SDS011;19390;51.460;5.710;2023-07-31T11:43:34;9.13;;;4.03;;
33022;SDS011;19390;51.460;5.710;2023-07-31T11:46:01;9.40;;;3.55;;
33022;SDS011;19390;51.460;5.710;2023-07-31T11:48:28;6.95;;;3.70;;
33022;SDS011;19390;51.460;5.710;2023-07-31T11:50:58;6.05;;;3.80;;
33022;SDS011;19390;51.460;5.710;2023-07-31T11:53:38;7.18;;;3.90;;
33022;SDS011;19390;51.460;5.710;2023-07-31T11:56:11;7.60;;;3.33;;
33022;SDS011;19390;51.460;5.710;2023-07-31T11:58:39;5.75;;;3.33;;
33022;SDS011;19390;51.460;5.710;2023-07-31T12:01:08;8.20;;;3.72;;
33022;SDS011;19390;51.460;5.710;2023-07-31T12:03:34;5.00;;;3.80;;
33022;SDS011;19390;51.460;5.710;2023-07-31T12:06:00;6.45;;;3.50;;
33022;SDS011;19390;51.460;5.710;2023-07-31T12:08:26;7.65;;;4.20;;
33022;SDS011;19390;51.460;5.710;2023-07-31T12:10:52;5.63;;;4.05;;
33022;SDS011;19390;51.460;5.710;2023-07-31T12:13:22;9.10;;;3.90;;
33022;SDS011;19390;51.460;5.710;2023-07-31T12:15:53;6.60;;;3.92;;
33022;SDS011;19390;51.460;5.710;2023-07-31T12:18:21;4.85;;;3.95;;
33022;SDS011;19390;51.460;5.710;2023-07-31T12:20:57;6.50;;;4.03;;
33022;SDS011;19390;51.460;5.710;2023-07-31T12:23:28;6.53;;;4.18;;
33022;SDS011;19390;51.460;5.710;2023-07-31T12:26:02;4.63;;;3.70;;
33022;SDS011;19390;51.460;5.710;2023-07-31T12:28:34;5.60;;;4.03;;
33022;SDS011;19390;51.460;5.710;2023-07-31T12:31:01;6.30;;;3.83;;
33022;SDS011;19390;51.460;5.710;2023-07-31T12:33:31;7.82;;;4.30;;
33022;SDS011;19390;51.460;5.710;2023-07-31T12:35:58;5.28;;;3.65;;
33022;SDS011;19390;51.460;5.710;2023-07-31T12:38:25;6.53;;;3.80;;
33022;SDS011;19390;51.460;5.710;2023-07-31T12:40:51;8.27;;;4.47;;
33022;SDS011;19390;51.460;5.710;2023-07-31T12:43:17;6.80;;;3.83;;
33022;SDS011;19390;51.460;5.710;2023-07-31T12:45:42;7.80;;;3.95;;
33022;SDS011;19390;51.460;5.710;2023-07-31T12:48:08;6.53;;;3.33;;
33022;SDS011;19390;51.460;5.710;2023-07-31T12:50:33;4.43;;;3.47;;
33022;SDS011;19390;51.460;5.710;2023-07-31T12:53:01;7.20;;;3.85;;
33022;SDS011;19390;51.460;5.710;2023-07-31T12:55:28;11.93;;;5.18;;
33022;SDS011;19390;51.460;5.710;2023-07-31T12:57:54;11.20;;;4.18;;
33022;SDS011;19390;51.460;5.710;2023-07-31T13:00:20;12.50;;;4.90;;
33022;SDS011;19390;51.460;5.710;2023-07-31T13:02:47;9.63;;;4.38;;
33022;SDS011;19390;51.460;5.710;2023-07-31T13:05:12;12.95;;;4.88;;
33022;SDS011;19390;51.460;5.710;2023-07-31T13:07:39;10.05;;;4.30;;
33022;SDS011;19390;51.460;5.710;2023-07-31T13:10:05;9.57;;;4.40;;
33022;SDS011;19390;51.460;5.710;2023-07-31T13:12:31;10.18;;;4.82;;
33022;SDS011;19390;51.460;5.710;2023-07-31T13:14:57;8.63;;;4.57;;
33022;SDS011;19390;51.460;5.710;2023-07-31T13:17:23;12.85;;;4.90;;
33022;SDS011;19390;51.460;5.710;2023-07-31T13:19:48;9.43;;;4.57;;
33022;SDS011;19390;51.460;5.710;2023-07-31T13:22:14;14.85;;;4.68;;
33022;SDS011;19390;51.460;5.710;2023-07-31T13:24:40;9.35;;;4.85;;
33022;SDS011;19390;51.460;5.710;2023-07-31T13:27:06;11.02;;;4.97;;
33022;SDS011;19390;51.460;5.710;2023-07-31T13:29:31;8.57;;;4.47;;
33022;SDS011;19390;51.460;5.710;2023-07-31T13:31:57;10.70;;;4.97;;
33022;SDS011;19390;51.460;5.710;2023-07-31T13:34:23;7.80;;;4.50;;
33022;SDS011;19390;51.460;5.710;2023-07-31T13:36:49;10.00;;;5.07;;
33022;SDS011;19390;51.460;5.710;2023-07-31T13:39:14;8.88;;;4.78;;
33022;SDS011;19390;51.460;5.710;2023-07-31T13:41:40;8.13;;;5.30;;
33022;SDS011;19390;51.460;5.710;2023-07-31T13:44:06;7.95;;;5.05;;
33022;SDS011;19390;51.460;5.710;2023-07-31T13:46:32;10.40;;;5.05;;
33022;SDS011;19390;51.460;5.710;2023-07-31T13:48:58;8.45;;;4.78;;
33022;SDS011;19390;51.460;5.710;2023-07-31T13:51:24;10.50;;;5.50;;
33022;SDS011;19390;51.460;5.710;2023-07-31T13:53:50;10.80;;;5.05;;
33022;SDS011;19390;51.460;5.710;2023-07-31T13:56:16;12.05;;;4.95;;
33022;SDS011;19390;51.460;5.710;2023-07-31T13:58:41;11.07;;;5.38;;
33022;SDS011;19390;51.460;5.710;2023-07-31T14:01:07;10.65;;;5.05;;
33022;SDS011;19390;51.460;5.710;2023-07-31T14:03:33;9.55;;;5.20;;
33022;SDS011;19390;51.460;5.710;2023-07-31T14:05:58;12.55;;;5.05;;
33022;SDS011;19390;51.460;5.710;2023-07-31T14:08:24;10.15;;;5.20;;
33022;SDS011;19390;51.460;5.710;2023-07-31T14:10:49;10.57;;;5.72;;
33022;SDS011;19390;51.460;5.710;2023-07-31T14:13:15;12.52;;;6.05;;
33022;SDS011;19390;51.460;5.710;2023-07-31T14:15:41;13.18;;;6.50;;
33022;SDS011;19390;51.460;5.710;2023-07-31T14:18:08;11.50;;;5.97;;
33022;SDS011;19390;51.460;5.710;2023-07-31T14:20:33;12.73;;;6.78;;
33022;SDS011;19390;51.460;5.710;2023-07-31T14:22:59;12.35;;;6.90;;
33022;SDS011;19390;51.460;5.710;2023-07-31T14:25:25;15.13;;;6.38;;
33022;SDS011;19390;51.460;5.710;2023-07-31T14:27:50;11.43;;;6.20;;
33022;SDS011;19390;51.460;5.710;2023-07-31T14:30:16;14.50;;;6.45;;
33022;SDS011;19390;51.460;5.710;2023-07-31T14:32:43;10.65;;;5.60;;
33022;SDS011;19390;51.460;5.710;2023-07-31T14:35:09;13.98;;;6.20;;
33022;SDS011;19390;51.460;5.710;2023-07-31T14:37:38;15.30;;;6.35;;
33022;SDS011;19390;51.460;5.710;2023-07-31T14:40:08;14.25;;;6.22;;
33022;SDS011;19390;51.460;5.710;2023-07-31T14:42:35;13.27;;;6.38;;
33022;SDS011;19390;51.460;5.710;2023-07-31T14:45:01;12.48;;;7.50;;
33022;SDS011;19390;51.460;5.710;2023-07-31T14:47:28;13.00;;;6.63;;
33022;SDS011;19390;51.460;5.710;2023-07-31T14:49:53;13.30;;;6.90;;
33022;SDS011;19390;51.460;5.710;2023-07-31T14:52:19;13.32;;;7.15;;
33022;SDS011;19390;51.460;5.710;2023-07-31T14:54:45;14.13;;;7.13;;